Butler, Oklahoma
Current Conditions -  °F | °C
As of 9:15 PM on Thursday 27 Nov 2014 (Local Time) from KCLK Reporting Station
Clear Clear  
Wind Chill: -1°   Ceiling: Unl
Heat Index:   Visibility: 10mi
Dew Point: -3°   Wind: 10mph
Humidity: 65%   Direction: 160°SSE
Pressure: 30.27"   Gusts: NA
Location:  35.64°N, 99.19°W
Report Text: KCLK 280315Z AUTO 16009KT 10SM CLR 03/M03 A3027 RMK AO2
Loading
Personal Weather Stations






























Interactive Weather Map New forecast layout! Learn more

10-Day Weather Forecast

Advertisements
Track Severe Weather on mobile